createdAt,value
2023-11-12T00:00:12.859Z,0.00
2023-11-12T00:01:12.901Z,0.00
2023-11-12T00:02:12.941Z,0.00
2023-11-12T00:03:12.952Z,0.00
2023-11-12T00:04:12.900Z,0.00
2023-11-12T00:05:12.951Z,0.00
2023-11-12T00:06:12.948Z,0.00
2023-11-12T00:07:12.875Z,0.00
2023-11-12T00:08:12.873Z,0.00
2023-11-12T00:09:12.825Z,0.00
2023-11-12T00:10:12.841Z,0.00
2023-11-12T00:11:12.912Z,0.00
2023-11-12T00:12:12.829Z,0.00
2023-11-12T00:13:12.836Z,0.00
2023-11-12T00:14:12.853Z,0.00
2023-11-12T00:15:12.842Z,0.00
2023-11-12T00:16:12.957Z,0.00
2023-11-12T00:17:12.876Z,0.00
2023-11-12T00:18:12.872Z,0.00
2023-11-12T00:19:12.802Z,0.00
2023-11-12T00:20:12.872Z,0.00
2023-11-12T00:21:13.169Z,0.00
2023-11-12T00:22:12.800Z,0.00
2023-11-12T00:23:12.850Z,0.00
2023-11-12T00:24:12.925Z,0.00
2023-11-12T00:25:12.803Z,0.00
2023-11-12T00:26:12.812Z,0.00
2023-11-12T00:27:12.795Z,0.00
2023-11-12T00:28:12.799Z,0.00
2023-11-12T00:29:12.893Z,0.00
2023-11-12T00:30:12.816Z,0.00
2023-11-12T00:31:12.809Z,0.00
2023-11-12T00:32:12.853Z,0.00
2023-11-12T00:33:12.838Z,0.00
2023-11-12T00:34:12.783Z,0.00
2023-11-12T00:35:12.817Z,0.00
2023-11-12T00:36:12.881Z,0.00
2023-11-12T00:37:12.779Z,0.00
2023-11-12T00:38:12.795Z,0.00
2023-11-12T00:39:12.780Z,0.00
2023-11-12T00:40:12.754Z,0.00
2023-11-12T00:41:12.806Z,0.00
2023-11-12T00:42:12.760Z,0.00
2023-11-12T00:43:12.750Z,0.00
2023-11-12T00:44:12.796Z,0.00
2023-11-12T00:45:12.760Z,0.00
2023-11-12T00:46:12.905Z,0.00
2023-11-12T00:47:12.785Z,0.00
2023-11-12T00:48:12.838Z,0.00
2023-11-12T00:49:12.752Z,0.00
2023-11-12T00:50:12.779Z,0.00
2023-11-12T00:51:12.754Z,0.00
2023-11-12T00:52:12.741Z,0.00
2023-11-12T00:53:12.781Z,0.00
2023-11-12T00:54:12.760Z,0.00
2023-11-12T00:55:12.744Z,0.00
2023-11-12T00:56:12.885Z,0.00
2023-11-12T00:57:12.749Z,0.00
2023-11-12T00:58:12.720Z,0.00
2023-11-12T00:59:12.773Z,0.00
2023-11-12T01:00:12.737Z,0.00
2023-11-12T01:01:12.995Z,0.00
2023-11-12T01:02:12.735Z,0.00
2023-11-12T01:03:12.789Z,0.00
2023-11-12T01:04:12.712Z,0.00
2023-11-12T01:05:12.801Z,0.00
2023-11-12T01:06:12.697Z,0.00
2023-11-12T01:07:13.057Z,0.00
2023-11-12T01:08:12.742Z,0.00
2023-11-12T01:09:12.710Z,0.00
2023-11-12T01:10:12.683Z,0.00
2023-11-12T01:11:12.705Z,0.00
2023-11-12T01:12:12.694Z,0.00
2023-11-12T01:13:12.701Z,0.00
2023-11-12T01:14:12.693Z,0.00
2023-11-12T01:15:12.713Z,0.00
2023-11-12T01:16:12.856Z,0.00
2023-11-12T01:17:12.685Z,0.00
2023-11-12T01:18:12.716Z,0.00
2023-11-12T01:19:12.672Z,0.00
2023-11-12T01:20:12.682Z,0.00
2023-11-12T01:21:12.679Z,0.00
2023-11-12T01:22:12.670Z,0.00
2023-11-12T01:23:12.664Z,0.00
2023-11-12T01:24:12.710Z,0.00
2023-11-12T01:25:12.658Z,0.00
2023-11-12T01:26:12.652Z,0.00
2023-11-12T01:27:12.732Z,0.00
2023-11-12T01:28:12.656Z,0.00
2023-11-12T01:29:12.653Z,0.00
2023-11-12T01:30:12.669Z,0.00
2023-11-12T01:31:12.656Z,0.00
2023-11-12T01:32:12.688Z,0.00
2023-11-12T01:33:12.749Z,0.00
2023-11-12T01:34:12.641Z,0.00
2023-11-12T01:35:12.637Z,0.00
2023-11-12T01:36:12.668Z,0.00
2023-11-12T01:37:12.633Z,0.00
2023-11-12T01:38:12.629Z,0.00
2023-11-12T01:39:12.643Z,0.00
2023-11-12T01:40:12.620Z,0.00
2023-11-12T01:41:12.634Z,0.00
2023-11-12T01:42:12.699Z,0.00
2023-11-12T01:43:12.605Z,0.00
2023-11-12T01:44:12.701Z,0.00
2023-11-12T01:45:12.615Z,0.00
2023-11-12T01:46:12.647Z,0.00
2023-11-12T01:47:12.602Z,0.00
2023-11-12T01:48:12.698Z,0.00
2023-11-12T01:49:12.599Z,0.00
2023-11-12T01:50:12.608Z,0.00
2023-11-12T01:51:12.642Z,0.00
2023-11-12T01:52:12.686Z,0.00
2023-11-12T01:53:12.579Z,0.00
2023-11-12T01:54:12.610Z,0.00
2023-11-12T01:55:12.572Z,0.00
2023-11-12T01:56:12.582Z,0.00
2023-11-12T01:57:12.611Z,0.00
2023-11-12T01:58:12.585Z,0.00
2023-11-12T01:59:12.567Z,0.00
2023-11-12T02:00:13.015Z,0.00
2023-11-12T02:01:12.551Z,0.00
2023-11-12T02:02:12.561Z,0.00
2023-11-12T02:03:12.651Z,0.00
2023-11-12T02:04:12.653Z,0.00
2023-11-12T02:05:12.554Z,0.00
2023-11-12T02:06:12.575Z,0.00
2023-11-12T02:07:12.549Z,0.00
2023-11-12T02:08:12.539Z,0.00
2023-11-12T02:09:12.539Z,0.00
2023-11-12T02:10:12.637Z,0.00
2023-11-12T02:11:12.539Z,0.00
2023-11-12T02:12:12.566Z,0.00
2023-11-12T02:13:12.532Z,0.00
2023-11-12T02:14:12.523Z,0.00
2023-11-12T02:15:12.634Z,0.00
2023-11-12T02:16:12.598Z,0.00
2023-11-12T02:17:12.503Z,0.00
2023-11-12T02:18:12.566Z,0.00
2023-11-12T02:19:12.502Z,0.00
2023-11-12T02:20:12.656Z,0.00
2023-11-12T02:21:12.516Z,0.00
2023-11-12T02:22:12.492Z,0.00
2023-11-12T02:23:12.505Z,0.00
2023-11-12T02:24:12.535Z,0.00
2023-11-12T02:25:12.508Z,0.00
2023-11-12T02:26:12.486Z,0.00
2023-11-12T02:27:12.507Z,0.00
2023-11-12T02:28:12.488Z,0.00
2023-11-12T02:29:12.475Z,0.00
2023-11-12T02:30:12.472Z,0.00
2023-11-12T02:31:12.492Z,0.00
2023-11-12T02:32:12.588Z,0.00
2023-11-12T02:33:12.554Z,0.00
2023-11-12T02:34:12.468Z,0.00
2023-11-12T02:35:12.474Z,0.00
2023-11-12T02:36:12.506Z,0.00
2023-11-12T02:37:12.449Z,0.00
2023-11-12T02:38:12.464Z,0.00
2023-11-12T02:39:12.500Z,0.00
2023-11-12T02:40:12.448Z,0.00
2023-11-12T02:41:12.446Z,0.00
2023-11-12T02:42:12.454Z,0.00
2023-11-12T02:43:12.537Z,0.00
2023-11-12T02:44:12.433Z,0.00
2023-11-12T02:45:12.519Z,0.00
2023-11-12T02:46:12.451Z,0.00
2023-11-12T02:47:12.432Z,0.00
2023-11-12T02:48:12.571Z,0.00
2023-11-12T02:49:12.422Z,0.00
2023-11-12T02:50:12.411Z,0.00
2023-11-12T02:51:12.449Z,0.00
2023-11-12T02:52:12.419Z,0.00
2023-11-12T02:53:12.413Z,0.00
2023-11-12T02:54:12.416Z,0.00
2023-11-12T02:55:12.401Z,0.00
2023-11-12T02:56:12.476Z,0.00
2023-11-12T02:57:12.442Z,0.00
2023-11-12T02:58:12.386Z,0.00
2023-11-12T02:59:12.392Z,0.00
2023-11-12T03:00:12.425Z,0.00
2023-11-12T03:01:12.413Z,0.00
2023-11-12T03:02:12.371Z,0.00
2023-11-12T03:03:12.440Z,0.00
2023-11-12T03:04:12.546Z,0.00
2023-11-12T03:05:12.368Z,0.00
2023-11-12T03:06:12.454Z,0.00
2023-11-12T03:07:12.354Z,0.00
2023-11-12T03:08:12.359Z,0.00
2023-11-12T03:09:12.401Z,0.00
2023-11-12T03:10:12.361Z,0.00
2023-11-12T03:11:12.341Z,0.00
2023-11-12T03:12:12.355Z,0.00
2023-11-12T03:13:12.331Z,0.00
2023-11-12T03:14:12.328Z,0.00
2023-11-12T03:15:12.382Z,0.00
2023-11-12T03:16:12.367Z,0.00
2023-11-12T03:17:12.322Z,0.00
2023-11-12T03:18:12.436Z,0.00
2023-11-12T03:19:12.413Z,0.00
2023-11-12T03:20:12.309Z,0.00
2023-11-12T03:21:12.346Z,0.00
2023-11-12T03:22:12.317Z,0.00
2023-11-12T03:23:12.299Z,0.00
2023-11-12T03:24:12.321Z,0.00
2023-11-12T03:25:12.310Z,0.00
2023-11-12T03:26:12.292Z,0.00
2023-11-12T03:27:12.291Z,0.00
2023-11-12T03:28:12.311Z,0.00
2023-11-12T03:29:12.280Z,0.00
2023-11-12T03:30:12.359Z,0.00
2023-11-12T03:31:12.284Z,0.00
2023-11-12T03:32:12.269Z,0.00
2023-11-12T03:33:12.298Z,0.00
2023-11-12T03:34:12.264Z,0.00
2023-11-12T03:35:12.259Z,0.00
2023-11-12T03:36:12.281Z,0.00
2023-11-12T03:37:12.250Z,0.00
2023-11-12T03:38:12.250Z,0.00
2023-11-12T03:39:12.269Z,0.00
2023-11-12T03:40:12.245Z,0.00
2023-11-12T03:41:12.237Z,0.00
2023-11-12T03:42:12.250Z,0.00
2023-11-12T03:43:12.239Z,0.00
2023-11-12T03:44:12.361Z,0.00
2023-11-12T03:45:12.253Z,0.00
2023-11-12T03:46:12.225Z,0.00
2023-11-12T03:47:12.221Z,0.00
2023-11-12T03:48:12.361Z,0.00
2023-11-12T03:49:12.223Z,0.00
2023-11-12T03:50:12.205Z,0.00
2023-11-12T03:51:12.248Z,0.00
2023-11-12T03:52:12.210Z,0.00
2023-11-12T03:53:12.197Z,0.00
2023-11-12T03:54:12.223Z,0.00
2023-11-12T03:55:12.199Z,0.00
2023-11-12T03:56:12.185Z,0.00
2023-11-12T03:57:12.196Z,0.00
2023-11-12T03:58:12.177Z,0.00
2023-11-12T03:59:12.182Z,0.00
2023-11-12T04:00:12.246Z,0.00
2023-11-12T04:01:12.223Z,0.00
2023-11-12T04:02:12.216Z,0.00
2023-11-12T04:03:12.460Z,0.00
2023-11-12T04:04:12.314Z,0.00
2023-11-12T04:05:12.311Z,0.00
2023-11-12T04:06:12.213Z,0.00
2023-11-12T04:07:12.147Z,0.00
2023-11-12T04:08:12.141Z,0.00
2023-11-12T04:09:12.290Z,0.00
2023-11-12T04:10:12.134Z,0.00
2023-11-12T04:11:12.136Z,0.00
2023-11-12T04:12:12.160Z,0.00
2023-11-12T04:13:12.122Z,0.00
2023-11-12T04:14:12.126Z,0.00
2023-11-12T04:15:12.171Z,0.00
2023-11-12T04:16:12.175Z,0.00
2023-11-12T04:17:12.108Z,0.00
2023-11-12T04:18:12.154Z,0.00
2023-11-12T04:19:12.102Z,0.00
2023-11-12T04:20:12.092Z,0.00
2023-11-12T04:21:12.119Z,0.00
2023-11-12T04:22:12.089Z,0.00
2023-11-12T04:23:12.086Z,0.00
2023-11-12T04:24:12.198Z,0.00
2023-11-12T04:25:12.090Z,0.00
2023-11-12T04:26:12.073Z,0.00
2023-11-12T04:27:12.102Z,0.00
2023-11-12T04:28:12.066Z,0.00
2023-11-12T04:29:12.095Z,0.00
2023-11-12T04:30:12.069Z,0.00
2023-11-12T04:31:12.073Z,0.00
2023-11-12T04:32:12.052Z,0.00
2023-11-12T04:33:12.058Z,0.00
2023-11-12T04:34:12.087Z,0.00
2023-11-12T04:35:12.065Z,0.00
2023-11-12T04:36:12.084Z,0.00
2023-11-12T04:37:12.033Z,0.00
2023-11-12T04:38:12.035Z,0.00
2023-11-12T04:39:12.058Z,0.00
2023-11-12T04:40:12.026Z,0.00
2023-11-12T04:41:12.024Z,0.00
2023-11-12T04:42:12.040Z,0.00
2023-11-12T04:43:12.014Z,0.00
2023-11-12T04:44:12.108Z,0.00
2023-11-12T04:45:12.058Z,0.00
2023-11-12T04:46:12.031Z,0.00
2023-11-12T04:47:12.002Z,0.00
2023-11-12T04:48:12.052Z,0.00
2023-11-12T04:49:11.991Z,0.00
2023-11-12T04:50:11.993Z,0.00
2023-11-12T04:51:12.058Z,0.00
2023-11-12T04:52:11.983Z,0.00
2023-11-12T04:53:11.981Z,0.00
2023-11-12T04:54:12.391Z,0.00
2023-11-12T04:55:11.971Z,0.00
2023-11-12T04:56:11.970Z,0.00
2023-11-12T04:57:11.983Z,0.00
2023-11-12T04:58:11.961Z,0.00
2023-11-12T04:59:12.214Z,0.00
2023-11-12T05:00:13.952Z,0.00
2023-11-12T05:01:11.947Z,0.00
2023-11-12T05:02:11.997Z,0.00
2023-11-12T05:03:11.965Z,0.00
2023-11-12T05:04:11.992Z,0.00
2023-11-12T05:05:11.928Z,0.00
2023-11-12T05:06:11.954Z,0.00
2023-11-12T05:07:11.926Z,0.00
2023-11-12T05:08:11.921Z,0.00
2023-11-12T05:09:12.043Z,0.00
2023-11-12T05:10:11.915Z,0.00
2023-11-12T05:11:11.925Z,0.00
2023-11-12T05:12:11.915Z,0.00
2023-11-12T05:13:11.914Z,0.00
2023-11-12T05:14:11.911Z,0.00
2023-11-12T05:15:11.952Z,0.00
2023-11-12T05:16:11.912Z,0.00
2023-11-12T05:17:11.885Z,0.00
2023-11-12T05:18:12.028Z,0.00
2023-11-12T05:19:11.982Z,0.00
2023-11-12T05:20:11.868Z,0.00
2023-11-12T05:21:11.877Z,0.00
2023-11-12T05:22:11.863Z,0.00
2023-11-12T05:23:11.860Z,0.00
2023-11-12T05:24:12.116Z,0.00
2023-11-12T05:25:11.845Z,0.00
2023-11-12T05:26:11.851Z,0.00
2023-11-12T05:27:11.848Z,0.00
2023-11-12T05:28:11.831Z,0.00
2023-11-12T05:29:11.925Z,0.00
2023-11-12T05:30:11.829Z,0.00
2023-11-12T05:31:11.914Z,0.00
2023-11-12T05:32:11.812Z,0.00
2023-11-12T05:33:11.880Z,0.00
2023-11-12T05:34:12.052Z,0.00
2023-11-12T05:35:11.795Z,0.00
2023-11-12T05:36:11.829Z,0.00
2023-11-12T05:37:56.803Z,0.00
2023-11-12T05:38:56.783Z,0.00
2023-11-12T05:39:56.791Z,0.00
2023-11-12T05:40:56.736Z,0.00
2023-11-12T05:41:56.738Z,0.00
2023-11-12T05:42:56.724Z,0.00
2023-11-12T05:43:56.717Z,0.00
2023-11-12T05:44:56.712Z,0.00
2023-11-12T05:45:56.709Z,0.00
2023-11-12T05:46:56.699Z,0.00
2023-11-12T05:47:56.744Z,0.00
2023-11-12T05:48:56.687Z,0.00
2023-11-12T05:49:56.679Z,0.00
2023-11-12T05:50:56.791Z,0.00
2023-11-12T05:51:56.669Z,0.00
2023-11-12T05:52:56.662Z,0.00
2023-11-12T05:53:56.667Z,0.00
2023-11-12T05:54:56.713Z,0.00
2023-11-12T05:55:56.645Z,0.00
2023-11-12T05:56:56.637Z,0.00
2023-11-12T05:57:56.645Z,0.00
2023-11-12T05:58:56.625Z,0.00
2023-11-12T05:59:56.620Z,0.00
2023-11-12T06:00:56.618Z,0.00
2023-11-12T06:01:56.628Z,0.00
2023-11-12T06:02:56.662Z,0.00
2023-11-12T06:03:56.834Z,0.00
2023-11-12T06:04:56.589Z,0.00
2023-11-12T06:05:56.583Z,0.00
2023-11-12T06:06:56.581Z,0.00
2023-11-12T06:07:56.671Z,0.00
2023-11-12T06:08:56.565Z,0.00
2023-11-12T06:09:56.563Z,0.00
2023-11-12T06:10:56.552Z,0.00
2023-11-12T06:11:56.545Z,0.00
2023-11-12T06:12:56.537Z,0.00
2023-11-12T06:13:56.694Z,0.00
2023-11-12T06:14:56.525Z,0.00
2023-11-12T06:15:56.522Z,0.00
2023-11-12T06:16:56.541Z,0.00
2023-11-12T06:17:56.569Z,0.00
2023-11-12T06:18:56.499Z,0.00
2023-11-12T06:19:56.633Z,0.00
2023-11-12T06:20:56.500Z,0.00
2023-11-12T06:21:56.516Z,0.00
2023-11-12T06:22:56.473Z,0.00
2023-11-12T06:23:56.477Z,0.00
2023-11-12T06:24:56.459Z,0.00
2023-11-12T06:25:56.555Z,0.00
2023-11-12T06:26:56.455Z,0.00
2023-11-12T06:27:56.453Z,0.00
2023-11-12T06:28:56.441Z,0.00
2023-11-12T06:29:56.429Z,0.00
2023-11-12T06:30:56.520Z,0.00
2023-11-12T06:31:56.420Z,0.00
2023-11-12T06:32:56.546Z,0.00
2023-11-12T06:33:56.596Z,0.00
2023-11-12T06:34:56.412Z,0.00
2023-11-12T06:35:56.649Z,0.00
2023-11-12T06:36:56.385Z,0.00
2023-11-12T06:37:56.377Z,0.00
2023-11-12T06:38:56.448Z,0.00
2023-11-12T06:39:56.390Z,0.00
2023-11-12T06:40:56.356Z,0.00
2023-11-12T06:41:56.478Z,0.00
2023-11-12T06:42:56.353Z,0.00
2023-11-12T06:43:56.344Z,0.00
2023-11-12T06:44:56.333Z,0.00
2023-11-12T06:45:56.328Z,0.00
2023-11-12T06:46:56.369Z,0.00
2023-11-12T06:47:56.358Z,0.00
2023-11-12T06:48:56.324Z,0.00
2023-11-12T06:49:57.914Z,0.00
2023-11-12T06:50:56.293Z,0.00
2023-11-12T06:51:56.288Z,0.00
2023-11-12T06:52:56.280Z,0.00
2023-11-12T06:53:56.277Z,0.00
2023-11-12T06:54:56.269Z,0.00
2023-11-12T06:55:56.265Z,0.00
2023-11-12T06:56:56.355Z,0.00
2023-11-12T06:57:56.253Z,0.00
2023-11-12T06:58:56.244Z,0.00
2023-11-12T06:59:56.241Z,0.00
2023-11-12T07:00:56.374Z,0.00
2023-11-12T07:01:56.225Z,0.00
2023-11-12T07:02:56.392Z,0.00
2023-11-12T07:03:56.297Z,0.00
2023-11-12T07:04:56.204Z,0.00
2023-11-12T07:05:56.209Z,0.00
2023-11-12T07:07:05.980Z,0.00
2023-11-12T07:07:56.188Z,0.00
2023-11-12T07:08:56.184Z,0.00
2023-11-12T07:09:56.180Z,0.00
2023-11-12T07:10:56.168Z,0.00
2023-11-12T07:11:56.162Z,0.00
2023-11-12T07:12:56.154Z,0.00
2023-11-12T07:13:56.149Z,0.00
2023-11-12T07:14:56.160Z,0.00
2023-11-12T07:15:56.448Z,0.00
2023-11-12T07:16:56.231Z,0.00
2023-11-12T07:17:56.143Z,0.00
2023-11-12T07:18:56.213Z,0.00
2023-11-12T07:19:56.112Z,0.00
2023-11-12T07:20:56.108Z,0.00
2023-11-12T07:21:56.100Z,0.00
2023-11-12T07:22:56.096Z,0.00
2023-11-12T07:23:56.105Z,0.00
2023-11-12T07:24:56.088Z,0.00
2023-11-12T07:25:56.074Z,0.00
2023-11-12T07:26:56.070Z,0.00
2023-11-12T07:27:56.080Z,0.00
2023-11-12T07:28:56.305Z,0.00
2023-11-12T07:29:56.053Z,0.00
2023-11-12T07:30:56.041Z,0.00
2023-11-12T07:31:56.038Z,0.00
2023-11-12T07:32:56.140Z,0.00
2023-11-12T07:33:56.032Z,0.00
2023-11-12T07:34:56.019Z,0.00
2023-11-12T07:35:56.014Z,0.00
2023-11-12T07:36:56.001Z,0.00
2023-11-12T07:37:55.997Z,0.00
2023-11-12T07:38:55.995Z,0.00
2023-11-12T07:39:56.040Z,0.00
2023-11-12T07:40:55.979Z,0.00
2023-11-12T07:41:55.980Z,0.00
2023-11-12T07:42:55.976Z,0.00
2023-11-12T07:43:55.963Z,0.00
2023-11-12T07:45:02.957Z,0.00
2023-11-12T07:45:56.085Z,0.00
2023-11-12T07:46:56.096Z,0.00
2023-11-12T07:47:55.962Z,0.00
2023-11-12T07:48:55.935Z,0.00
2023-11-12T07:49:55.933Z,0.00
2023-11-12T07:50:55.925Z,0.00
2023-11-12T07:51:55.918Z,0.00
2023-11-12T07:52:55.912Z,0.00
2023-11-12T07:53:55.901Z,0.00
2023-11-12T07:54:55.898Z,0.00
2023-11-12T07:55:55.899Z,0.00
2023-11-12T07:56:55.894Z,0.00
2023-11-12T07:57:55.880Z,0.00
2023-11-12T07:58:55.874Z,0.00
2023-11-12T07:59:55.865Z,0.00
2023-11-12T08:00:55.857Z,0.00
2023-11-12T08:01:55.903Z,0.00
2023-11-12T08:02:55.859Z,0.00
2023-11-12T08:03:55.886Z,0.00
2023-11-12T08:04:55.833Z,0.00
2023-11-12T08:05:55.826Z,0.00
2023-11-12T08:06:55.857Z,0.00
2023-11-12T08:07:55.815Z,0.00
2023-11-12T08:08:55.810Z,0.00
2023-11-12T08:09:55.804Z,0.00
2023-11-12T08:10:55.797Z,0.00
2023-11-12T08:11:55.896Z,0.00
2023-11-12T08:12:55.785Z,0.00
2023-11-12T08:13:55.781Z,0.00
2023-11-12T08:14:55.774Z,0.00
2023-11-12T08:15:55.767Z,0.00
2023-11-12T08:16:55.768Z,0.00
2023-11-12T08:17:55.783Z,0.00
2023-11-12T08:18:55.813Z,0.00
2023-11-12T08:19:55.741Z,0.00
2023-11-12T08:20:55.803Z,0.00
2023-11-12T08:21:55.866Z,0.00
2023-11-12T08:22:55.723Z,0.00
2023-11-12T08:23:55.717Z,0.00
2023-11-12T08:24:55.712Z,0.00
2023-11-12T08:25:55.703Z,0.00
2023-11-12T08:26:55.698Z,0.00
2023-11-12T08:27:55.742Z,0.00
2023-11-12T08:28:55.687Z,0.00
2023-11-12T08:29:55.683Z,0.00
2023-11-12T08:30:55.763Z,0.00
2023-11-12T08:31:55.686Z,0.00
2023-11-12T08:32:55.695Z,0.00
2023-11-12T08:33:55.797Z,0.00
2023-11-12T08:34:55.648Z,0.00
2023-11-12T08:35:55.652Z,0.00
2023-11-12T08:36:55.714Z,0.00
2023-11-12T08:37:55.729Z,0.00
2023-11-12T08:38:55.634Z,0.00
2023-11-12T08:39:55.643Z,0.00
2023-11-12T08:40:55.625Z,5.63
2023-11-12T08:41:55.615Z,5.63
2023-11-12T08:42:55.610Z,5.63
2023-11-12T08:43:55.587Z,5.63
2023-11-12T08:44:55.679Z,5.63
2023-11-12T08:45:55.608Z,5.63
2023-11-12T08:46:55.625Z,5.63
2023-11-12T08:47:55.577Z,5.63
2023-11-12T08:48:55.605Z,5.63
2023-11-12T08:49:55.558Z,5.63
2023-11-12T08:50:55.542Z,5.63
2023-11-12T08:51:55.556Z,5.63
2023-11-12T08:52:55.529Z,5.63
2023-11-12T08:53:55.523Z,5.63
2023-11-12T08:54:55.562Z,5.63
2023-11-12T08:55:56.109Z,5.63
2023-11-12T08:56:55.505Z,5.63
2023-11-12T08:57:55.526Z,5.63
2023-11-12T08:58:55.491Z,5.63
2023-11-12T08:59:55.487Z,5.63
2023-11-12T09:00:55.561Z,5.63
2023-11-12T09:01:55.508Z,5.63
2023-11-12T09:02:55.508Z,5.63
2023-11-12T09:03:55.557Z,5.63
2023-11-12T09:04:55.464Z,5.63
2023-11-12T09:05:55.450Z,5.63
2023-11-12T09:06:55.459Z,11.25
2023-11-12T09:07:55.435Z,11.25
2023-11-12T09:08:55.431Z,11.25
2023-11-12T09:09:55.475Z,11.25
2023-11-12T09:10:55.420Z,11.25
2023-11-12T09:11:55.413Z,11.25
2023-11-12T09:12:55.437Z,11.25
2023-11-12T09:13:55.403Z,11.25
2023-11-12T09:14:55.408Z,11.25
2023-11-12T09:15:55.467Z,11.25
2023-11-12T09:16:55.414Z,11.25
2023-11-12T09:17:55.411Z,11.25
2023-11-12T09:18:55.418Z,11.25
2023-11-12T09:19:55.377Z,11.25
2023-11-12T09:20:55.374Z,11.25
2023-11-12T09:21:55.410Z,11.25
2023-11-12T09:22:55.349Z,11.25
2023-11-12T09:23:55.349Z,11.25
2023-11-12T09:25:04.720Z,11.25
2023-11-12T09:25:55.330Z,11.25
2023-11-12T09:26:55.424Z,11.25
2023-11-12T09:27:55.360Z,11.25
2023-11-12T09:28:55.312Z,11.25
2023-11-12T09:29:55.308Z,11.25
2023-11-12T09:30:59.981Z,11.25
2023-11-12T09:31:55.296Z,11.25
2023-11-12T09:32:55.340Z,11.25
2023-11-12T09:33:55.307Z,11.25
2023-11-12T09:34:55.291Z,11.25
2023-11-12T09:35:55.299Z,11.25
2023-11-12T09:36:55.427Z,11.25
2023-11-12T09:37:55.260Z,11.25
2023-11-12T09:38:55.256Z,11.25
2023-11-12T09:39:55.360Z,11.25
2023-11-12T09:40:55.248Z,11.25
2023-11-12T09:41:55.244Z,11.25
2023-11-12T09:42:55.252Z,11.25
2023-11-12T09:43:55.244Z,11.25
2023-11-12T09:44:55.229Z,11.25
2023-11-12T09:45:55.258Z,11.25
2023-11-12T09:46:55.334Z,11.25
2023-11-12T09:47:55.251Z,11.25
2023-11-12T09:48:55.269Z,11.25
2023-11-12T09:49:55.195Z,11.25
2023-11-12T09:50:55.187Z,11.25
2023-11-12T09:51:55.200Z,11.25
2023-11-12T09:52:55.178Z,11.25
2023-11-12T09:53:55.172Z,11.25
2023-11-12T09:54:55.202Z,11.25
2023-11-12T09:55:55.165Z,11.25
2023-11-12T09:57:06.276Z,11.25
2023-11-12T09:57:55.165Z,11.25
2023-11-12T09:58:55.143Z,11.25
2023-11-12T09:59:55.137Z,11.25
2023-11-12T10:00:55.163Z,11.25
2023-11-12T10:01:55.184Z,11.25
2023-11-12T10:02:55.197Z,11.25
2023-11-12T10:03:55.246Z,11.25
2023-11-12T10:04:55.129Z,11.25
2023-11-12T10:05:55.107Z,11.25
2023-11-12T10:06:55.262Z,11.25
2023-11-12T10:07:55.096Z,16.88
2023-11-12T10:08:55.099Z,16.88
2023-11-12T10:09:55.103Z,16.88
2023-11-12T10:10:55.083Z,16.88
2023-11-12T10:11:55.077Z,16.88
2023-11-12T10:12:55.101Z,16.88
2023-11-12T10:13:55.077Z,16.88
2023-11-12T10:14:55.060Z,16.88
2023-11-12T10:15:55.158Z,16.88
2023-11-12T10:16:55.205Z,16.88
2023-11-12T10:17:57.663Z,16.88
2023-11-12T10:18:55.219Z,16.88
2023-11-12T10:19:55.032Z,16.88
2023-11-12T10:20:55.027Z,16.88
2023-11-12T10:21:55.143Z,16.88
2023-11-12T10:22:55.022Z,16.88
2023-11-12T10:23:55.014Z,16.88
2023-11-12T10:24:55.070Z,16.88
2023-11-12T10:25:55.009Z,16.88
2023-11-12T10:26:55.172Z,16.88
2023-11-12T10:27:55.051Z,16.88
2023-11-12T10:28:54.990Z,16.88
2023-11-12T10:29:54.980Z,16.88
2023-11-12T10:30:55.063Z,16.88
2023-11-12T10:31:54.989Z,16.88
2023-11-12T10:32:54.994Z,16.88
2023-11-12T10:33:55.012Z,16.88
2023-11-12T10:34:54.957Z,16.88
2023-11-12T10:35:54.954Z,16.88
2023-11-12T10:36:55.081Z,16.88
2023-11-12T10:37:54.939Z,16.88
2023-11-12T10:38:54.937Z,16.88
2023-11-12T10:39:54.965Z,16.88
2023-11-12T10:40:54.928Z,16.88
2023-11-12T10:41:54.924Z,16.88
2023-11-12T10:42:54.979Z,16.88
2023-11-12T10:43:54.909Z,16.88
2023-11-12T10:44:54.912Z,16.88
2023-11-12T10:45:54.944Z,16.88
2023-11-12T10:46:54.929Z,16.88
2023-11-12T10:47:54.922Z,16.88
2023-11-12T10:48:54.945Z,16.88
2023-11-12T10:49:54.886Z,16.88
2023-11-12T10:50:54.884Z,16.88
2023-11-12T10:51:54.941Z,16.88
2023-11-12T10:52:54.866Z,16.88
2023-11-12T10:53:54.873Z,16.88
2023-11-12T10:54:54.896Z,16.88
2023-11-12T10:55:54.856Z,16.88
2023-11-12T10:56:54.853Z,16.88
2023-11-12T10:57:54.913Z,16.88
2023-11-12T10:58:54.848Z,16.88
2023-11-12T10:59:54.850Z,16.88
2023-11-12T11:00:54.891Z,16.88
2023-11-12T11:01:54.971Z,16.88
2023-11-12T11:02:54.938Z,22.50
2023-11-12T11:03:54.895Z,22.50
2023-11-12T11:04:54.815Z,22.50
2023-11-12T11:05:54.821Z,22.50
2023-11-12T11:06:54.853Z,22.50
2023-11-12T11:07:54.804Z,22.50
2023-11-12T11:08:54.797Z,22.50
2023-11-12T11:09:54.830Z,22.50
2023-11-12T11:10:54.794Z,22.50
2023-11-12T11:11:54.895Z,22.50
2023-11-12T11:12:54.810Z,22.50
2023-11-12T11:13:54.781Z,22.50
2023-11-12T11:14:54.774Z,22.50
2023-11-12T11:15:54.834Z,22.50
2023-11-12T11:16:54.838Z,22.50
2023-11-12T11:17:54.784Z,22.50
2023-11-12T11:18:54.847Z,22.50
2023-11-12T11:19:54.757Z,22.50
2023-11-12T11:20:54.749Z,22.50
2023-11-12T11:21:54.872Z,22.50
2023-11-12T11:22:54.748Z,22.50
2023-11-12T11:23:54.887Z,22.50
2023-11-12T11:24:54.760Z,22.50
2023-11-12T11:25:54.736Z,22.50
2023-11-12T11:26:55.052Z,22.50
2023-11-12T11:27:54.843Z,22.50
2023-11-12T11:28:54.716Z,22.50
2023-11-12T11:29:54.713Z,22.50
2023-11-12T11:30:54.722Z,22.50
2023-11-12T11:31:54.707Z,22.50
2023-11-12T11:32:54.765Z,22.50
2023-11-12T11:33:54.842Z,22.50
2023-11-12T11:34:54.694Z,22.50
2023-11-12T11:35:54.691Z,22.50
2023-11-12T11:36:54.741Z,22.50
2023-11-12T11:37:54.680Z,22.50
2023-11-12T11:38:56.487Z,22.50
2023-11-12T11:39:54.707Z,22.50
2023-11-12T11:40:54.671Z,22.50
2023-11-12T11:41:54.743Z,22.50
2023-11-12T11:42:54.714Z,22.50
2023-11-12T11:43:54.657Z,22.50
2023-11-12T11:44:57.177Z,22.50
2023-11-12T11:45:54.735Z,22.50
2023-11-12T11:46:54.654Z,22.50
2023-11-12T11:47:54.657Z,22.50
2023-11-12T11:48:54.669Z,28.13
2023-11-12T11:49:54.636Z,28.13
2023-11-12T11:50:56.542Z,28.13
2023-11-12T11:51:54.714Z,28.13
2023-11-12T11:52:54.631Z,28.13
2023-11-12T11:53:54.622Z,28.13
2023-11-12T11:54:54.662Z,28.13
2023-11-12T11:55:54.767Z,28.13
2023-11-12T11:56:54.614Z,33.75
2023-11-12T11:57:54.673Z,33.75
2023-11-12T11:58:54.621Z,33.75
2023-11-12T11:59:54.604Z,33.75
2023-11-12T12:00:54.645Z,33.75
2023-11-12T12:01:54.654Z,33.75
2023-11-12T12:02:54.632Z,33.75
2023-11-12T12:03:54.638Z,33.75
2023-11-12T12:04:54.658Z,33.75
2023-11-12T12:05:54.589Z,33.75
2023-11-12T12:06:54.614Z,33.75
2023-11-12T12:07:54.585Z,33.75
2023-11-12T12:08:54.582Z,33.75
2023-11-12T12:09:57.591Z,39.38
2023-11-12T12:10:54.573Z,39.38
2023-11-12T12:11:54.675Z,39.38
2023-11-12T12:12:54.620Z,39.38
2023-11-12T12:13:54.569Z,39.38
2023-11-12T12:14:54.567Z,45.00
2023-11-12T12:15:54.605Z,45.00
2023-11-12T12:16:54.653Z,45.00
2023-11-12T12:17:54.577Z,45.00
2023-11-12T12:18:54.628Z,45.00
2023-11-12T12:19:54.558Z,45.00
2023-11-12T12:20:54.559Z,45.00
2023-11-12T12:21:54.610Z,50.63
2023-11-12T12:22:54.564Z,50.63
2023-11-12T12:23:54.557Z,50.63
2023-11-12T12:24:54.615Z,50.63
2023-11-12T12:25:54.552Z,50.63
2023-11-12T12:26:54.657Z,50.63
2023-11-12T12:27:54.671Z,50.63
2023-11-12T12:28:54.570Z,56.25
2023-11-12T12:29:54.640Z,56.25
2023-11-12T12:30:54.640Z,56.25
2023-11-12T12:31:54.580Z,56.25
2023-11-12T12:32:54.636Z,50.63
2023-11-12T12:33:54.589Z,56.25
2023-11-12T12:34:54.557Z,56.25
2023-11-12T12:35:54.560Z,56.25
2023-11-12T12:36:54.571Z,61.88
2023-11-12T12:37:54.560Z,61.88
2023-11-12T12:38:54.562Z,61.88
2023-11-12T12:39:56.849Z,61.88
2023-11-12T12:40:54.563Z,61.88
2023-11-12T12:41:54.562Z,61.88
2023-11-12T12:42:54.605Z,61.88
2023-11-12T12:43:54.572Z,61.88
2023-11-12T12:44:54.570Z,56.25
2023-11-12T12:45:54.598Z,61.88
2023-11-12T12:46:54.573Z,61.88
2023-11-12T12:47:54.621Z,61.88
2023-11-12T12:48:54.676Z,61.88
2023-11-12T12:49:54.582Z,61.88
2023-11-12T12:50:54.578Z,61.88
2023-11-12T12:51:54.620Z,61.88
2023-11-12T12:52:54.582Z,61.88
2023-11-12T12:53:54.581Z,61.88
2023-11-12T12:54:54.696Z,61.88
2023-11-12T12:55:54.586Z,61.88
2023-11-12T12:56:54.789Z,61.88
2023-11-12T12:57:54.627Z,61.88
2023-11-12T12:58:54.590Z,61.88
2023-11-12T12:59:54.600Z,61.88
2023-11-12T13:00:54.660Z,61.88
2023-11-12T13:01:54.614Z,61.88
2023-11-12T13:02:54.652Z,61.88
2023-11-12T13:03:54.642Z,61.88
2023-11-12T13:04:54.774Z,61.88
2023-11-12T13:05:54.601Z,61.88
2023-11-12T13:06:54.645Z,61.88
2023-11-12T13:07:54.650Z,67.50
2023-11-12T13:08:54.608Z,61.88
2023-11-12T13:09:54.652Z,73.13
2023-11-12T13:10:54.614Z,61.88